Time;durP1;ratioP1;P1;durP2;ratioP2;P2;SDS_P1;SDS_P2;PMS_P1;PMS_P2;Temp;Humidity;BMP_temperature;BMP_pressure;BME280_temperature;BME280_humidity;BME280_pressure;Samples;Min_cycle;Max_cycle;Signal;HPM_P1;HPM_P2
2021/12/26 00:01:41;;;;;;;377.52;16.25;;;;;;;;;;8265807;28;20045;-85
2021/12/26 00:05:41;;;;;;;491.95;18.45;;;;;;;;;;8267934;28;20018;-84
2021/12/26 00:09:42;;;;;;;284.88;14.15;;;;;;;;;;8269622;28;21094;-85
2021/12/26 00:13:42;;;;;;;347.45;14.95;;;;;;;;;;8283675;28;20375;-85
2021/12/26 00:17:42;;;;;;;213.32;12.70;;;;;;;;;;8269584;28;20280;-85
2021/12/26 00:21:43;;;;;;;551.15;19.48;;;;;;;;;;8268270;28;20021;-85
2021/12/26 00:25:44;;;;;;;407.35;16.20;;;;;;;;;;8268233;28;20475;-84
2021/12/26 00:29:45;;;;;;;262.45;14.80;;;;;;;;;;8267550;28;20026;-85
2021/12/26 00:33:45;;;;;;;398.30;16.85;;;;;;;;;;8268253;28;20148;-85
2021/12/26 00:37:46;;;;;;;304.23;15.07;;;;;;;;;;8269595;28;20820;-84
2021/12/26 00:41:46;;;;;;;586.50;21.20;;;;;;;;;;8264701;28;20100;-85
2021/12/26 00:45:46;;;;;;;541.20;20.73;;;;;;;;;;8267213;28;20042;-84
2021/12/26 00:49:46;;;;;;;170.13;12.52;;;;;;;;;;8266860;28;20025;-85
2021/12/26 00:53:46;;;;;;;164.48;12.93;;;;;;;;;;8268771;28;20151;-84
2021/12/26 00:57:47;;;;;;;286.58;13.93;;;;;;;;;;8267161;28;20507;-85
2021/12/26 01:01:47;;;;;;;513.85;19.35;;;;;;;;;;8275473;28;20997;-84
2021/12/26 01:05:50;;;;;;;321.05;15.68;;;;;;;;;;8265728;28;20026;-84
2021/12/26 01:09:52;;;;;;;439.15;18.38;;;;;;;;;;8268116;28;20155;-85
2021/12/26 01:13:53;;;;;;;212.68;13.15;;;;;;;;;;8267517;28;20026;-84
2021/12/26 01:17:58;;;;;;;251.32;13.88;;;;;;;;;;8267319;28;20172;-84
2021/12/26 01:21:58;;;;;;;340.08;16.15;;;;;;;;;;8265964;28;20063;-84
2021/12/26 01:25:59;;;;;;;345.83;16.07;;;;;;;;;;8265585;28;20026;-85
2021/12/26 01:29:59;;;;;;;129.23;10.88;;;;;;;;;;8267154;28;20746;-85
2021/12/26 01:34:02;;;;;;;137.90;10.60;;;;;;;;;;8266679;28;20042;-85
2021/12/26 01:38:02;;;;;;;293.30;14.60;;;;;;;;;;8266332;28;20052;-84
2021/12/26 01:42:03;;;;;;;144.93;11.55;;;;;;;;;;8266552;28;20037;-84
2021/12/26 01:46:04;;;;;;;175.13;11.50;;;;;;;;;;8266314;28;20045;-84
2021/12/26 01:50:06;;;;;;;78.15;10.38;;;;;;;;;;8260515;28;20029;-84
2021/12/26 01:54:09;;;;;;;244.00;12.80;;;;;;;;;;8259566;28;20029;-84
2021/12/26 01:58:11;;;;;;;255.80;14.20;;;;;;;;;;8265165;28;20018;-85
2021/12/26 02:02:12;;;;;;;86.97;11.40;;;;;;;;;;8274774;28;20034;-85
2021/12/26 02:06:12;;;;;;;245.32;13.27;;;;;;;;;;8267551;28;20137;-84
2021/12/26 02:10:13;;;;;;;49.67;9.30;;;;;;;;;;8269496;28;20037;-85
2021/12/26 02:14:13;;;;;;;125.03;11.43;;;;;;;;;;8274563;28;20275;-85
2021/12/26 02:18:13;;;;;;;20.73;9.77;;;;;;;;;;8271471;28;20803;-85
2021/12/26 02:22:18;;;;;;;120.00;11.25;;;;;;;;;;8274406;28;20500;-85
2021/12/26 02:30:38;;;;;;;31.80;9.15;;;;;;;;;;8272020;28;20087;-85
2021/12/26 02:34:38;;;;;;;20.33;8.98;;;;;;;;;;8271272;28;20033;-84
2021/12/26 02:38:38;;;;;;;29.73;8.82;;;;;;;;;;8272926;28;20036;-85
2021/12/26 02:42:39;;;;;;;72.47;10.97;;;;;;;;;;8273088;28;20041;-84
2021/12/26 02:46:40;;;;;;;31.58;9.80;;;;;;;;;;8273089;28;20433;-85
2021/12/26 02:50:42;;;;;;;35.72;10.07;;;;;;;;;;8272964;28;20026;-84
2021/12/26 02:54:42;;;;;;;30.85;9.75;;;;;;;;;;8270320;28;20065;-85
2021/12/26 02:58:42;;;;;;;42.85;10.38;;;;;;;;;;8270853;28;20041;-85
2021/12/26 03:02:43;;;;;;;31.83;9.73;;;;;;;;;;8273509;28;20137;-85
2021/12/26 03:06:55;;;;;;;41.20;9.75;;;;;;;;;;8266493;28;20096;-84
2021/12/26 03:10:55;;;;;;;31.60;9.60;;;;;;;;;;8270984;28;20026;-85
2021/12/26 03:14:56;;;;;;;15.75;9.13;;;;;;;;;;8270914;28;20025;-85
2021/12/26 03:18:57;;;;;;;52.30;10.60;;;;;;;;;;8272364;28;20049;-85
2021/12/26 03:22:59;;;;;;;46.95;10.90;;;;;;;;;;8271989;28;20107;-84
2021/12/26 03:27:04;;;;;;;27.33;10.05;;;;;;;;;;8270686;28;20037;-85
2021/12/26 03:31:04;;;;;;;20.00;10.13;;;;;;;;;;8269377;28;20026;-85
2021/12/26 03:35:05;;;;;;;18.15;9.18;;;;;;;;;;8272175;28;20036;-85
2021/12/26 03:39:05;;;;;;;36.45;10.38;;;;;;;;;;8274080;28;20028;-85
2021/12/26 03:43:06;;;;;;;35.80;10.30;;;;;;;;;;8271871;28;20059;-85
2021/12/26 03:47:07;;;;;;;18.90;9.40;;;;;;;;;;8270207;28;20724;-85
2021/12/26 03:51:07;;;;;;;20.63;8.93;;;;;;;;;;8270960;28;20542;-85
2021/12/26 03:55:07;;;;;;;43.42;9.25;;;;;;;;;;8269031;28;20029;-85
2021/12/26 03:59:07;;;;;;;37.33;9.35;;;;;;;;;;8268053;28;20032;-85
2021/12/26 04:03:08;;;;;;;69.45;10.98;;;;;;;;;;8270225;28;20041;-84
2021/12/26 04:07:08;;;;;;;29.00;9.38;;;;;;;;;;8269917;28;20054;-85
2021/12/26 04:11:09;;;;;;;66.85;10.85;;;;;;;;;;8271031;28;20021;-85
2021/12/26 04:15:11;;;;;;;75.32;10.75;;;;;;;;;;8279467;28;20038;-84
2021/12/26 04:19:12;;;;;;;36.60;10.10;;;;;;;;;;8270610;28;20311;-84
2021/12/26 04:23:14;;;;;;;115.40;11.93;;;;;;;;;;8270779;28;20030;-84
2021/12/26 04:27:15;;;;;;;35.85;11.55;;;;;;;;;;8269624;28;20029;-85
2021/12/26 04:31:15;;;;;;;76.80;10.90;;;;;;;;;;8262170;28;20030;-85
2021/12/26 04:35:16;;;;;;;15.30;9.23;;;;;;;;;;8269767;28;20056;-85
2021/12/26 04:39:17;;;;;;;24.80;9.55;;;;;;;;;;8280427;28;20029;-85
2021/12/26 04:43:20;;;;;;;105.47;11.63;;;;;;;;;;8279215;28;20221;-85
2021/12/26 04:47:20;;;;;;;52.13;10.60;;;;;;;;;;8268372;28;20026;-84
2021/12/26 04:51:20;;;;;;;146.45;13.10;;;;;;;;;;8269173;28;20026;-84
2021/12/26 04:55:24;;;;;;;173.02;13.07;;;;;;;;;;8269300;28;21132;-84
2021/12/26 04:59:26;;;;;;;33.70;10.00;;;;;;;;;;8283235;28;20040;-84
2021/12/26 05:03:26;;;;;;;88.70;10.80;;;;;;;;;;8278270;28;20033;-84
2021/12/26 05:07:26;;;;;;;46.80;11.27;;;;;;;;;;8267790;28;20034;-84
2021/12/26 05:11:27;;;;;;;41.70;11.03;;;;;;;;;;8268300;28;20022;-84
2021/12/26 05:15:27;;;;;;;11.63;9.13;;;;;;;;;;8267679;28;20759;-84
2021/12/26 05:19:27;;;;;;;18.08;9.82;;;;;;;;;;8269010;28;20409;-84
2021/12/26 05:23:27;;;;;;;32.90;10.07;;;;;;;;;;8265792;28;20289;-84
2021/12/26 05:27:28;;;;;;;28.40;10.18;;;;;;;;;;8266517;28;20097;-84
2021/12/26 05:31:28;;;;;;;37.10;10.25;;;;;;;;;;8266392;28;20041;-84
2021/12/26 05:35:28;;;;;;;48.63;11.00;;;;;;;;;;8266306;28;20941;-84
2021/12/26 05:39:28;;;;;;;105.63;11.23;;;;;;;;;;8267621;28;20033;-84
2021/12/26 05:43:28;;;;;;;101.35;12.00;;;;;;;;;;8265924;28;20281;-84
2021/12/26 05:47:29;;;;;;;28.40;9.48;;;;;;;;;;8265399;28;20041;-84
2021/12/26 05:51:29;;;;;;;62.40;10.10;;;;;;;;;;8269450;28;20034;-84
2021/12/26 05:55:31;;;;;;;48.35;11.48;;;;;;;;;;8269596;28;20564;-83
2021/12/26 05:59:31;;;;;;;66.18;11.25;;;;;;;;;;8267579;28;20727;-84
2021/12/26 06:03:31;;;;;;;99.25;11.88;;;;;;;;;;8265969;28;20069;-84
2021/12/26 06:07:32;;;;;;;81.70;12.48;;;;;;;;;;8265555;28;20289;-84
2021/12/26 06:11:33;;;;;;;92.97;11.85;;;;;;;;;;8267012;28;20025;-84
2021/12/26 06:15:33;;;;;;;91.63;11.48;;;;;;;;;;8266415;28;20359;-84
2021/12/26 06:19:33;;;;;;;198.88;14.23;;;;;;;;;;8265070;28;20040;-84
2021/12/26 06:23:34;;;;;;;134.88;12.05;;;;;;;;;;8269307;28;20996;-84
2021/12/26 06:27:36;;;;;;;187.25;13.20;;;;;;;;;;8267295;28;20028;-84
2021/12/26 06:31:36;;;;;;;118.85;11.43;;;;;;;;;;8266022;28;20149;-84
2021/12/26 06:35:36;;;;;;;200.55;13.75;;;;;;;;;;8266733;28;21076;-84
2021/12/26 06:39:37;;;;;;;119.78;12.50;;;;;;;;;;8264916;28;20017;-84
2021/12/26 06:43:38;;;;;;;22.75;10.25;;;;;;;;;;8263011;28;20891;-84
2021/12/26 06:47:39;;;;;;;31.25;9.57;;;;;;;;;;8264854;28;20026;-83
2021/12/26 06:51:39;;;;;;;32.88;10.68;;;;;;;;;;8276874;28;20112;-83
2021/12/26 06:55:39;;;;;;;68.32;10.80;;;;;;;;;;8266982;28;20350;-83
2021/12/26 06:59:40;;;;;;;51.53;9.43;;;;;;;;;;8269641;28;20025;-83
2021/12/26 07:03:40;;;;;;;29.17;9.10;;;;;;;;;;8268824;28;20041;-84
2021/12/26 07:07:41;;;;;;;47.63;8.88;;;;;;;;;;8272406;28;20586;-84
2021/12/26 07:11:41;;;;;;;33.65;9.35;;;;;;;;;;8268891;28;20392;-84
2021/12/26 07:15:41;;;;;;;47.95;9.88;;;;;;;;;;8271381;28;20196;-84
2021/12/26 07:19:42;;;;;;;17.60;8.43;;;;;;;;;;8270469;28;20029;-84
2021/12/26 07:23:42;;;;;;;29.73;9.50;;;;;;;;;;8270931;28;20025;-84
2021/12/26 07:27:42;;;;;;;25.30;9.27;;;;;;;;;;8270243;28;20368;-84
2021/12/26 07:31:42;;;;;;;55.67;9.70;;;;;;;;;;8270433;28;20380;-80
2021/12/26 07:35:43;;;;;;;38.78;9.35;;;;;;;;;;8269231;28;20743;-80
2021/12/26 07:39:43;;;;;;;41.47;9.48;;;;;;;;;;8272390;28;20056;-80
2021/12/26 07:43:43;;;;;;;59.38;10.13;;;;;;;;;;8270963;28;20029;-80
2021/12/26 07:47:43;;;;;;;28.77;8.55;;;;;;;;;;8265028;28;20033;-81
2021/12/26 07:51:45;;;;;;;46.40;9.20;;;;;;;;;;8269063;28;20056;-81
2021/12/26 07:55:45;;;;;;;94.75;9.82;;;;;;;;;;8266248;28;21100;-81
2021/12/26 07:59:45;;;;;;;126.32;10.38;;;;;;;;;;8270609;28;20021;-82
2021/12/26 08:03:46;;;;;;;40.65;9.45;;;;;;;;;;8266648;28;20029;-81
2021/12/26 08:07:46;;;;;;;53.22;9.40;;;;;;;;;;8285430;28;20032;-81
2021/12/26 08:11:46;;;;;;;45.85;9.27;;;;;;;;;;8263791;28;20032;-81
2021/12/26 08:15:46;;;;;;;31.85;9.40;;;;;;;;;;8271762;28;20574;-81
2021/12/26 08:19:46;;;;;;;34.80;9.73;;;;;;;;;;8270139;28;20355;-81
2021/12/26 08:23:47;;;;;;;44.85;10.07;;;;;;;;;;8271745;28;20284;-81
2021/12/26 08:27:47;;;;;;;51.83;10.02;;;;;;;;;;8272489;28;20045;-81
2021/12/26 08:31:48;;;;;;;40.83;9.70;;;;;;;;;;8267783;28;20026;-81
2021/12/26 08:35:49;;;;;;;91.70;10.15;;;;;;;;;;8271536;28;20529;-81
2021/12/26 08:39:49;;;;;;;49.58;9.20;;;;;;;;;;8269725;28;20040;-81
2021/12/26 08:43:50;;;;;;;102.03;9.57;;;;;;;;;;8269929;28;20025;-81
2021/12/26 08:47:51;;;;;;;66.05;10.23;;;;;;;;;;8273338;28;20069;-81
2021/12/26 08:51:52;;;;;;;55.10;10.05;;;;;;;;;;8270914;28;20502;-81
2021/12/26 08:55:52;;;;;;;142.30;10.85;;;;;;;;;;8287587;28;20368;-81
2021/12/26 08:59:52;;;;;;;10.80;8.27;;;;;;;;;;8268733;28;20284;-81
2021/12/26 09:03:52;;;;;;;59.35;9.77;;;;;;;;;;8268478;28;20037;-81
2021/12/26 09:07:53;;;;;;;62.35;8.93;;;;;;;;;;8270041;28;20025;-82
2021/12/26 09:11:53;;;;;;;23.97;8.37;;;;;;;;;;8268082;28;20087;-81
2021/12/26 09:15:53;;;;;;;12.85;8.15;;;;;;;;;;8270528;28;20261;-82
2021/12/26 09:19:53;;;;;;;22.75;8.68;;;;;;;;;;8269919;28;20025;-81
2021/12/26 09:23:54;;;;;;;28.98;8.25;;;;;;;;;;8269167;28;20033;-81
2021/12/26 09:27:54;;;;;;;19.85;8.27;;;;;;;;;;8271409;28;20017;-81
2021/12/26 09:31:56;;;;;;;25.45;6.78;;;;;;;;;;8269753;28;20581;-81
2021/12/26 09:35:56;;;;;;;36.80;7.70;;;;;;;;;;8269060;28;20028;-81
2021/12/26 09:39:57;;;;;;;36.00;7.85;;;;;;;;;;8272916;28;20083;-82
2021/12/26 09:43:57;;;;;;;17.88;7.10;;;;;;;;;;8261229;28;20037;-81
2021/12/26 09:47:57;;;;;;;27.90;7.82;;;;;;;;;;8265486;28;20057;-77
2021/12/26 09:51:57;;;;;;;14.13;7.10;;;;;;;;;;8265203;28;20328;-77
2021/12/26 09:55:58;;;;;;;17.33;7.13;;;;;;;;;;8257738;28;20017;-77
2021/12/26 09:59:58;;;;;;;38.05;7.40;;;;;;;;;;8265929;28;20108;-77
2021/12/26 10:04:02;;;;;;;33.08;7.50;;;;;;;;;;8262529;28;20372;-77
2021/12/26 10:08:06;;;;;;;101.15;8.55;;;;;;;;;;8264016;28;20391;-76
2021/12/26 10:12:07;;;;;;;71.33;8.07;;;;;;;;;;8265745;28;20026;-76
2021/12/26 10:16:07;;;;;;;22.42;7.82;;;;;;;;;;8265841;28;20037;-76
2021/12/26 10:20:10;;;;;;;74.95;8.48;;;;;;;;;;8263045;28;20022;-76
2021/12/26 10:24:20;;;;;;;31.77;8.13;;;;;;;;;;8265991;28;20029;-76
2021/12/26 10:28:20;;;;;;;64.25;8.63;;;;;;;;;;8265336;28;20021;-76
2021/12/26 10:32:22;;;;;;;127.22;9.55;;;;;;;;;;8268125;28;20080;-76
2021/12/26 10:36:23;;;;;;;57.53;8.52;;;;;;;;;;8273389;28;20264;-77
2021/12/26 10:40:25;;;;;;;36.65;8.65;;;;;;;;;;8271266;28;20600;-76
2021/12/26 10:44:31;;;;;;;51.88;8.10;;;;;;;;;;8268310;28;20033;-76
2021/12/26 10:48:31;;;;;;;41.05;9.07;;;;;;;;;;8269360;28;20053;-76
2021/12/26 10:52:32;;;;;;;83.65;8.45;;;;;;;;;;8268900;28;20025;-76
2021/12/26 10:56:33;;;;;;;18.80;8.18;;;;;;;;;;8263801;28;20033;-76
2021/12/26 11:00:37;;;;;;;156.52;9.70;;;;;;;;;;8270202;28;20459;-76
2021/12/26 11:04:52;;;;;;;135.48;9.25;;;;;;;;;;8270403;28;20805;-76
2021/12/26 11:08:52;;;;;;;79.90;8.93;;;;;;;;;;8267862;28;20022;-75
2021/12/26 11:12:54;;;;;;;152.60;9.88;;;;;;;;;;8269358;28;20037;-76
2021/12/26 11:16:54;;;;;;;139.52;10.98;;;;;;;;;;8266266;28;20029;-76
2021/12/26 11:20:56;;;;;;;314.98;13.95;;;;;;;;;;8269075;28;20120;-75
2021/12/26 11:24:57;;;;;;;196.38;11.63;;;;;;;;;;8269789;28;20406;-75
2021/12/26 11:28:58;;;;;;;219.23;12.48;;;;;;;;;;8268779;28;20045;-76
2021/12/26 11:32:59;;;;;;;219.00;12.10;;;;;;;;;;8267862;28;20116;-75
2021/12/26 11:36:59;;;;;;;320.75;13.90;;;;;;;;;;8268157;28;20034;-76
2021/12/26 11:41:01;;;;;;;106.72;10.00;;;;;;;;;;8266652;28;20040;-75
2021/12/26 11:45:25;;;;;;;131.90;11.30;;;;;;;;;;8265635;28;20810;-76
2021/12/26 11:49:44;;;;;;;47.33;9.48;;;;;;;;;;8275819;28;20042;-76
2021/12/26 11:54:03;;;;;;;106.88;9.80;;;;;;;;;;8276867;28;20658;-76
2021/12/26 11:58:22;;;;;;;86.00;9.95;;;;;;;;;;8270154;28;20033;-76
2021/12/26 12:02:42;;;;;;;163.70;10.57;;;;;;;;;;8270190;28;20220;-77
2021/12/26 12:06:43;;;;;;;104.18;10.75;;;;;;;;;;8269495;28;20057;-77
2021/12/26 12:10:43;;;;;;;202.30;10.93;;;;;;;;;;8270303;28;20017;-76
2021/12/26 12:14:45;;;;;;;71.90;9.77;;;;;;;;;;8264082;28;20449;-77
2021/12/26 12:18:45;;;;;;;71.38;9.73;;;;;;;;;;8278460;28;20049;-77
2021/12/26 12:23:04;;;;;;;120.55;10.10;;;;;;;;;;8271605;28;20820;-76
2021/12/26 12:27:08;;;;;;;165.32;13.20;;;;;;;;;;8271295;28;20062;-77
2021/12/26 12:31:08;;;;;;;129.68;10.80;;;;;;;;;;8268652;28;20097;-76
2021/12/26 12:35:16;;;;;;;155.20;11.27;;;;;;;;;;8263963;28;20091;-77
2021/12/26 12:39:21;;;;;;;145.57;11.43;;;;;;;;;;8272862;28;20018;-77
2021/12/26 12:43:22;;;;;;;167.32;11.60;;;;;;;;;;8269071;28;20371;-77
2021/12/26 12:47:24;;;;;;;349.90;14.65;;;;;;;;;;8268132;28;20052;-77
2021/12/26 12:51:27;;;;;;;201.70;11.75;;;;;;;;;;8270693;28;20026;-77
2021/12/26 12:55:42;;;;;;;85.50;10.25;;;;;;;;;;8268868;28;20021;-77
2021/12/26 12:59:43;;;;;;;272.00;12.77;;;;;;;;;;8262708;28;20037;-77
2021/12/26 13:03:43;;;;;;;133.82;10.88;;;;;;;;;;8275696;28;20438;-77
2021/12/26 13:07:43;;;;;;;197.00;12.00;;;;;;;;;;8268653;28;20014;-77
2021/12/26 13:11:44;;;;;;;206.55;11.73;;;;;;;;;;8267246;28;20032;-77
2021/12/26 13:15:50;;;;;;;277.20;12.75;;;;;;;;;;8268501;28;20392;-78
2021/12/26 13:20:13;;;;;;;254.13;12.70;;;;;;;;;;8268808;28;20041;-77
2021/12/26 13:24:13;;;;;;;155.75;11.50;;;;;;;;;;8260687;28;20120;-77
2021/12/26 13:28:14;;;;;;;240.98;12.82;;;;;;;;;;8261798;28;20030;-77
2021/12/26 13:32:14;;;;;;;250.48;13.57;;;;;;;;;;8268631;28;20045;-77
2021/12/26 13:36:17;;;;;;;230.05;12.45;;;;;;;;;;8268071;28;20337;-77
2021/12/26 13:40:17;;;;;;;322.67;14.63;;;;;;;;;;8261802;28;20511;-78
2021/12/26 13:44:18;;;;;;;436.70;15.45;;;;;;;;;;8270134;28;20052;-77
2021/12/26 13:48:32;;;;;;;181.10;12.18;;;;;;;;;;8265520;28;20056;-77
2021/12/26 13:52:32;;;;;;;99.70;10.15;;;;;;;;;;8268502;28;20048;-77
2021/12/26 13:56:51;;;;;;;170.70;11.13;;;;;;;;;;8267745;28;20034;-77
2021/12/26 14:00:54;;;;;;;77.82;10.48;;;;;;;;;;8265813;28;20045;-77
2021/12/26 14:04:58;;;;;;;233.30;11.77;;;;;;;;;;8269687;28;20160;-77
2021/12/26 14:08:59;;;;;;;134.90;10.65;;;;;;;;;;8276625;28;20018;-79
2021/12/26 14:13:00;;;;;;;410.15;14.98;;;;;;;;;;8277192;28;20141;-77
2021/12/26 14:17:08;;;;;;;389.98;13.85;;;;;;;;;;8274102;28;20038;-77
2021/12/26 14:21:15;;;;;;;100.55;10.05;;;;;;;;;;8277116;28;20037;-77
2021/12/26 14:25:15;;;;;;;198.52;10.10;;;;;;;;;;8273010;28;20026;-77
2021/12/26 14:29:18;;;;;;;237.38;11.60;;;;;;;;;;8274388;28;20045;-77
2021/12/26 14:33:18;;;;;;;353.90;12.80;;;;;;;;;;8271613;28;20140;-77
2021/12/26 14:37:22;;;;;;;65.63;9.48;;;;;;;;;;8274886;28;20494;-77
2021/12/26 14:41:32;;;;;;;121.90;9.70;;;;;;;;;;8273022;28;20044;-77
2021/12/26 14:45:32;;;;;;;155.02;9.55;;;;;;;;;;8273008;28;20490;-77
2021/12/26 14:49:37;;;;;;;159.38;9.77;;;;;;;;;;8273836;28;20227;-77
2021/12/26 14:53:38;;;;;;;246.20;11.45;;;;;;;;;;8274244;28;20771;-77
2021/12/26 14:57:38;;;;;;;99.63;9.15;;;;;;;;;;8274138;28;20743;-77
2021/12/26 15:01:38;;;;;;;237.18;11.48;;;;;;;;;;8273411;28;20040;-77
2021/12/26 15:05:38;;;;;;;163.48;10.57;;;;;;;;;;8273652;28;20168;-78
2021/12/26 15:09:49;;;;;;;243.98;11.45;;;;;;;;;;8273878;28;20025;-77
2021/12/26 15:13:52;;;;;;;243.85;11.95;;;;;;;;;;8273502;28;20052;-77
2021/12/26 15:17:52;;;;;;;207.68;11.10;;;;;;;;;;8270495;28;20045;-77
2021/12/26 15:22:02;;;;;;;281.70;12.13;;;;;;;;;;8275689;28;20367;-77
2021/12/26 15:26:10;;;;;;;284.85;11.98;;;;;;;;;;8272840;28;20040;-77
2021/12/26 15:30:20;;;;;;;187.95;9.88;;;;;;;;;;8272954;28;20487;-78
2021/12/26 15:34:21;;;;;;;374.98;13.73;;;;;;;;;;8274351;28;20076;-77
2021/12/26 15:38:21;;;;;;;171.20;9.88;;;;;;;;;;8274235;28;20029;-77
2021/12/26 15:42:21;;;;;;;100.85;8.52;;;;;;;;;;8273069;28;20112;-77
2021/12/26 15:46:22;;;;;;;336.60;12.38;;;;;;;;;;8271073;28;20046;-77
2021/12/26 15:50:22;;;;;;;167.52;9.32;;;;;;;;;;8271830;28;20426;-77
2021/12/26 15:54:23;;;;;;;59.63;6.43;;;;;;;;;;8272368;28;20049;-77
2021/12/26 15:58:23;;;;;;;76.00;6.80;;;;;;;;;;8269950;28;20291;-77
2021/12/26 16:02:23;;;;;;;94.43;6.57;;;;;;;;;;8269172;28;20054;-77
2021/12/26 16:06:24;;;;;;;43.07;5.87;;;;;;;;;;8272423;28;20132;-77
2021/12/26 16:10:24;;;;;;;399.48;11.38;;;;;;;;;;8269600;28;21036;-77
2021/12/26 16:14:24;;;;;;;413.85;12.77;;;;;;;;;;8271677;28;20115;-77
2021/12/26 16:18:24;;;;;;;158.35;8.07;;;;;;;;;;8269623;28;20128;-77
2021/12/26 16:22:25;;;;;;;121.43;7.00;;;;;;;;;;8273692;28;20033;-76
2021/12/26 16:26:25;;;;;;;283.15;9.85;;;;;;;;;;8268890;28;20030;-76
2021/12/26 16:30:26;;;;;;;501.92;14.40;;;;;;;;;;8264521;28;20033;-76
2021/12/26 16:34:26;;;;;;;495.10;14.68;;;;;;;;;;8271002;28;20087;-77
2021/12/26 16:38:27;;;;;;;618.88;17.60;;;;;;;;;;8271607;28;20049;-76
2021/12/26 16:42:27;;;;;;;341.13;11.82;;;;;;;;;;8270816;28;20033;-76
2021/12/26 16:46:29;;;;;;;548.65;16.33;;;;;;;;;;8270478;28;20668;-76
2021/12/26 16:50:33;;;;;;;165.50;9.27;;;;;;;;;;8270955;28;20080;-76
2021/12/26 16:54:34;;;;;;;148.00;7.78;;;;;;;;;;8269879;28;20097;-77
2021/12/26 16:58:34;;;;;;;27.02;5.10;;;;;;;;;;8271821;28;20462;-75
2021/12/26 17:02:34;;;;;;;80.82;6.25;;;;;;;;;;8269061;28;20037;-76
2021/12/26 17:06:35;;;;;;;443.23;12.93;;;;;;;;;;8263673;28;20121;-76
2021/12/26 17:10:35;;;;;;;319.92;10.27;;;;;;;;;;8270602;28;20033;-76
2021/12/26 17:14:35;;;;;;;132.15;6.28;;;;;;;;;;8271099;28;20034;-76
2021/12/26 17:18:36;;;;;;;270.55;9.18;;;;;;;;;;8266531;28;20038;-76
2021/12/26 17:22:36;;;;;;;274.90;8.63;;;;;;;;;;8270401;28;20115;-76
2021/12/26 17:26:36;;;;;;;148.52;6.47;;;;;;;;;;8268936;28;20500;-76
2021/12/26 17:30:37;;;;;;;152.30;7.10;;;;;;;;;;8268668;28;20030;-76
2021/12/26 17:34:37;;;;;;;92.30;5.63;;;;;;;;;;8269218;28;20029;-76
2021/12/26 17:38:38;;;;;;;269.02;9.40;;;;;;;;;;8263084;28;20392;-77
2021/12/26 17:42:38;;;;;;;305.58;10.35;;;;;;;;;;8268356;28;20029;-76
2021/12/26 17:46:38;;;;;;;129.40;6.97;;;;;;;;;;8270019;28;20109;-76
2021/12/26 17:50:39;;;;;;;107.03;6.43;;;;;;;;;;8268252;28;20022;-77
2021/12/26 17:54:39;;;;;;;151.35;7.32;;;;;;;;;;8270259;28;20113;-77
2021/12/26 17:58:39;;;;;;;60.72;5.53;;;;;;;;;;8263243;28;20079;-77
2021/12/26 18:02:40;;;;;;;155.85;7.25;;;;;;;;;;8268276;28;20034;-77
2021/12/26 18:06:42;;;;;;;136.65;6.25;;;;;;;;;;8270141;28;20033;-77
2021/12/26 18:10:42;;;;;;;148.35;6.60;;;;;;;;;;8269290;28;20048;-77
2021/12/26 18:14:42;;;;;;;559.15;15.57;;;;;;;;;;8267584;28;20024;-76
2021/12/26 18:18:43;;;;;;;61.47;4.90;;;;;;;;;;8268523;28;20454;-77
2021/12/26 18:22:43;;;;;;;91.05;5.65;;;;;;;;;;8267560;28;20037;-77
2021/12/26 18:26:43;;;;;;;309.38;9.55;;;;;;;;;;8268924;28;20033;-77
2021/12/26 18:30:45;;;;;;;478.75;12.57;;;;;;;;;;8266952;28;20053;-77
2021/12/26 18:34:45;;;;;;;480.15;12.48;;;;;;;;;;8267609;28;20536;-77
2021/12/26 18:38:45;;;;;;;219.13;7.47;;;;;;;;;;8267604;28;20053;-77
2021/12/26 18:42:45;;;;;;;399.48;10.23;;;;;;;;;;8268107;28;20573;-77
2021/12/26 18:46:46;;;;;;;141.27;5.30;;;;;;;;;;8259212;28;20320;-77
2021/12/26 18:50:46;;;;;;;172.38;5.95;;;;;;;;;;8267685;28;20028;-77
2021/12/26 18:54:49;;;;;;;128.57;5.82;;;;;;;;;;8273136;28;20021;-77
2021/12/26 18:58:50;;;;;;;93.03;4.78;;;;;;;;;;8273737;28;20113;-77
2021/12/26 19:02:51;;;;;;;249.52;7.60;;;;;;;;;;8282098;28;20046;-77
2021/12/26 19:06:52;;;;;;;155.25;5.20;;;;;;;;;;8265703;28;20029;-77
2021/12/26 19:10:54;;;;;;;154.85;5.88;;;;;;;;;;8274075;28;20021;-77
2021/12/26 19:14:55;;;;;;;278.35;7.75;;;;;;;;;;8272631;28;20123;-77
2021/12/26 19:18:55;;;;;;;244.80;8.13;;;;;;;;;;8277365;28;20046;-78
2021/12/26 19:22:57;;;;;;;179.82;5.93;;;;;;;;;;8271974;28;20103;-77
2021/12/26 19:26:57;;;;;;;185.48;6.25;;;;;;;;;;8270897;28;20048;-77
2021/12/26 19:31:01;;;;;;;407.15;9.98;;;;;;;;;;8265097;28;20029;-77
2021/12/26 19:35:01;;;;;;;107.63;4.25;;;;;;;;;;8273348;28;20029;-76
2021/12/26 19:39:02;;;;;;;119.32;4.25;;;;;;;;;;8282989;28;20057;-77
2021/12/26 19:43:04;;;;;;;242.38;6.18;;;;;;;;;;8272562;28;20431;-77
2021/12/26 19:47:04;;;;;;;264.50;7.38;;;;;;;;;;8271041;28;20088;-77
2021/12/26 19:51:05;;;;;;;417.05;9.65;;;;;;;;;;8272721;28;20053;-77
2021/12/26 19:55:05;;;;;;;59.80;3.40;;;;;;;;;;8271935;28;20683;-78
2021/12/26 19:59:06;;;;;;;107.32;4.15;;;;;;;;;;8271034;28;20063;-77
2021/12/26 20:03:06;;;;;;;107.35;3.88;;;;;;;;;;8270187;28;20033;-77
2021/12/26 20:07:06;;;;;;;189.80;5.57;;;;;;;;;;8273898;28;20029;-77
2021/12/26 20:11:07;;;;;;;213.63;6.68;;;;;;;;;;8274313;28;20021;-77
2021/12/26 20:15:08;;;;;;;217.68;6.50;;;;;;;;;;8272130;28;20029;-77
2021/12/26 20:19:11;;;;;;;211.23;6.32;;;;;;;;;;8269373;28;20100;-77
2021/12/26 20:23:11;;;;;;;375.73;9.25;;;;;;;;;;8273670;28;20109;-77
2021/12/26 20:27:12;;;;;;;192.52;5.70;;;;;;;;;;8270253;28;20045;-76
2021/12/26 20:31:12;;;;;;;19.87;3.10;;;;;;;;;;8271086;28;20152;-76
2021/12/26 20:35:12;;;;;;;114.55;4.57;;;;;;;;;;8270261;28;20288;-77
2021/12/26 20:39:13;;;;;;;169.32;4.82;;;;;;;;;;8280741;28;20025;-76
2021/12/26 20:43:15;;;;;;;215.85;5.60;;;;;;;;;;8271775;28;20061;-76
2021/12/26 20:47:15;;;;;;;206.00;5.47;;;;;;;;;;8268866;28;20289;-77
2021/12/26 20:51:15;;;;;;;183.35;5.20;;;;;;;;;;8271618;28;20093;-76
2021/12/26 20:55:16;;;;;;;229.77;6.05;;;;;;;;;;8271695;28;20108;-77
2021/12/26 20:59:16;;;;;;;86.82;3.40;;;;;;;;;;8267285;28;20024;-76
2021/12/26 21:03:17;;;;;;;73.43;3.38;;;;;;;;;;8266112;28;21062;-76
2021/12/26 21:07:18;;;;;;;39.53;2.90;;;;;;;;;;8270660;28;20709;-82
2021/12/26 21:11:19;;;;;;;81.47;4.07;;;;;;;;;;8275038;28;20108;-82
2021/12/26 21:15:20;;;;;;;51.00;3.47;;;;;;;;;;8272815;28;20380;-82
2021/12/26 21:19:20;;;;;;;80.18;3.60;;;;;;;;;;8272243;28;20049;-82
2021/12/26 21:23:20;;;;;;;134.75;4.90;;;;;;;;;;8270864;28;20025;-82
2021/12/26 21:27:20;;;;;;;104.83;4.33;;;;;;;;;;8272325;28;20466;-83
2021/12/26 21:31:21;;;;;;;81.82;3.95;;;;;;;;;;8272982;28;20273;-82
2021/12/26 21:35:21;;;;;;;133.15;4.90;;;;;;;;;;8270471;28;20484;-82
2021/12/26 21:39:21;;;;;;;34.45;3.53;;;;;;;;;;8270016;28;20037;-82
2021/12/26 21:43:23;;;;;;;27.88;3.60;;;;;;;;;;8265765;28;20095;-82
2021/12/26 21:47:26;;;;;;;141.75;5.43;;;;;;;;;;8271370;28;20080;-82
2021/12/26 21:51:26;;;;;;;173.88;5.75;;;;;;;;;;8270025;28;20018;-82
2021/12/26 21:55:27;;;;;;;54.03;4.15;;;;;;;;;;8270587;28;20069;-83
2021/12/26 21:59:28;;;;;;;24.55;3.65;;;;;;;;;;8270603;28;20510;-82
2021/12/26 22:03:28;;;;;;;62.25;4.28;;;;;;;;;;8245988;28;20624;-82
2021/12/26 22:07:28;;;;;;;57.33;3.90;;;;;;;;;;8270966;28;20109;-82
2021/12/26 22:11:28;;;;;;;48.72;3.80;;;;;;;;;;8272353;28;20102;-83
2021/12/26 22:15:29;;;;;;;68.20;4.30;;;;;;;;;;8271865;28;20280;-83
2021/12/26 22:19:29;;;;;;;92.18;4.65;;;;;;;;;;8269929;28;20281;-82
2021/12/26 22:23:29;;;;;;;47.45;3.85;;;;;;;;;;8266904;28;20029;-82
2021/12/26 22:27:30;;;;;;;21.70;3.55;;;;;;;;;;8272177;28;20026;-83
2021/12/26 22:31:30;;;;;;;5.63;3.38;;;;;;;;;;8274600;28;20107;-82
2021/12/26 22:35:32;;;;;;;10.25;3.15;;;;;;;;;;8275168;28;20580;-82
2021/12/26 22:39:32;;;;;;;12.85;3.20;;;;;;;;;;8274452;28;20449;-83
2021/12/26 22:43:33;;;;;;;12.07;3.35;;;;;;;;;;8289361;28;20069;-83
2021/12/26 22:47:33;;;;;;;12.35;2.80;;;;;;;;;;8273995;28;20154;-83
2021/12/26 22:51:33;;;;;;;8.68;3.63;;;;;;;;;;8275897;28;20538;-83
2021/12/26 22:55:34;;;;;;;5.93;4.00;;;;;;;;;;8271096;28;20618;-83
2021/12/26 22:59:34;;;;;;;6.57;3.55;;;;;;;;;;8274137;28;20781;-83
2021/12/26 23:03:34;;;;;;;3.95;3.33;;;;;;;;;;8269299;28;20053;-83
2021/12/26 23:07:35;;;;;;;10.57;3.97;;;;;;;;;;8265191;28;20893;-83
2021/12/26 23:11:35;;;;;;;5.35;3.85;;;;;;;;;;8268374;28;20467;-83
2021/12/26 23:15:35;;;;;;;5.50;3.90;;;;;;;;;;8272383;28;20064;-83
2021/12/26 23:19:36;;;;;;;4.97;3.53;;;;;;;;;;8273562;28;20173;-83
2021/12/26 23:23:36;;;;;;;5.28;3.70;;;;;;;;;;8273219;28;21166;-84
2021/12/26 23:27:37;;;;;;;8.68;3.80;;;;;;;;;;8274165;28;20108;-84
2021/12/26 23:31:37;;;;;;;5.88;3.65;;;;;;;;;;8267006;28;20048;-83